createdAt,value
2018-09-11T00:02:20.019Z,98844.95
2018-09-11T00:04:52.392Z,98844.22
2018-09-11T00:07:24.683Z,98838.19
2018-09-11T00:09:56.955Z,98831.89
2018-09-11T00:12:29.285Z,98830.26
2018-09-11T00:15:01.566Z,98834.95
2018-09-11T00:17:33.834Z,98829.53
2018-09-11T00:20:06.168Z,98831.23
2018-09-11T00:22:38.448Z,98827.05
2018-09-11T00:25:10.726Z,98827.05
2018-09-11T00:27:42.981Z,98819.32
2018-09-11T00:30:15.405Z,98816.90
2018-09-11T00:32:47.685Z,98817.88
2018-09-11T00:35:19.977Z,98816.02
2018-09-11T00:37:52.207Z,98818.54
2018-09-11T00:40:24.504Z,98822.31
2018-09-11T00:42:56.791Z,98824.17
2018-09-11T00:45:29.079Z,98825.57
2018-09-11T00:48:01.349Z,98820.05
2018-09-11T00:50:33.632Z,98826.64
2018-09-11T00:53:05.904Z,98821.39
2018-09-11T00:55:38.203Z,98823.34
2018-09-11T00:58:10.458Z,98821.48
2018-09-11T01:00:42.790Z,98829.28
2018-09-11T01:03:15.068Z,98832.20
2018-09-11T01:05:47.344Z,98836.85
2018-09-11T01:08:19.626Z,98842.33
2018-09-11T01:10:51.890Z,98837.17
2018-09-11T01:13:24.153Z,98839.59
2018-09-11T01:15:56.400Z,98838.32
2018-09-11T01:18:28.636Z,98837.80
2018-09-11T01:21:00.877Z,98838.92
2018-09-11T01:23:33.113Z,98838.92
2018-09-11T01:26:05.384Z,98837.98
2018-09-11T01:28:37.618Z,98845.30
2018-09-11T01:31:09.873Z,98845.14
2018-09-11T01:33:42.109Z,98846.91
2018-09-11T01:36:14.401Z,98848.45
2018-09-11T01:38:46.696Z,98848.35
2018-09-11T01:41:18.981Z,98850.13
2018-09-11T01:43:51.245Z,98847.77
2018-09-11T01:46:23.533Z,98851.97
2018-09-11T01:48:55.781Z,98848.48
2018-09-11T01:51:28.030Z,98849.30
2018-09-11T01:54:00.286Z,98845.02
2018-09-11T01:56:32.551Z,98850.52
2018-09-11T01:59:04.865Z,98840.83
2018-09-11T02:01:37.108Z,98848.55
2018-09-11T02:04:09.380Z,98856.66
2018-09-11T02:06:41.648Z,98847.63
2018-09-11T02:09:13.933Z,98853.86
2018-09-11T02:11:46.211Z,98859.01
2018-09-11T02:14:18.493Z,98857.72
2018-09-11T02:16:50.952Z,98859.59
2018-09-11T02:19:23.217Z,98863.14
2018-09-11T02:21:55.461Z,98871.44
2018-09-11T02:24:27.725Z,98870.56
2018-09-11T02:26:59.985Z,98871.30
2018-09-11T02:29:32.273Z,98866.29
2018-09-11T02:32:04.569Z,98869.10
2018-09-11T02:34:36.835Z,98870.22
2018-09-11T02:37:09.080Z,98867.78
2018-09-11T02:39:41.333Z,98864.66
2018-09-11T02:42:13.590Z,98865.43
2018-09-11T02:44:45.909Z,98856.63
2018-09-11T02:47:18.129Z,98855.17
2018-09-11T02:49:50.384Z,98857.48
2018-09-11T02:52:22.617Z,98857.68
2018-09-11T02:54:54.929Z,98857.58
2018-09-11T02:57:27.184Z,98863.73
2018-09-11T02:59:59.440Z,98865.56
2018-09-11T03:02:31.669Z,98863.39
2018-09-11T03:05:03.971Z,98868.88
2018-09-11T03:07:36.228Z,98861.70
2018-09-11T03:10:08.513Z,98863.63
2018-09-11T03:12:40.781Z,98867.66
2018-09-11T03:15:13.049Z,98873.34
2018-09-11T03:17:45.310Z,98879.87
2018-09-11T03:20:17.636Z,98873.61
2018-09-11T03:22:49.902Z,98875.48
2018-09-11T03:25:22.120Z,98879.64
2018-09-11T03:27:54.385Z,98876.20
2018-09-11T03:30:26.674Z,98885.52
2018-09-11T03:32:58.952Z,98884.59
2018-09-11T03:35:31.261Z,98881.78
2018-09-11T03:38:03.523Z,98885.62
2018-09-11T03:40:35.792Z,98892.95
2018-09-11T03:43:08.093Z,98889.22
2018-09-11T03:45:44.869Z,98897.56
2018-09-11T03:48:19.080Z,98893.70
2018-09-11T03:50:51.626Z,98899.62
2018-09-11T03:53:23.893Z,98905.58
2018-09-11T03:55:56.140Z,98904.81
2018-09-11T03:58:28.429Z,98909.84
2018-09-11T04:01:00.703Z,98914.41
2018-09-11T04:03:33.000Z,98910.30
2018-09-11T04:06:05.317Z,98907.66
2018-09-11T04:08:37.584Z,98914.45
2018-09-11T04:11:09.796Z,98919.42
2018-09-11T04:13:42.045Z,98915.89
2018-09-11T04:16:14.352Z,98918.94
2018-09-11T04:18:46.606Z,98926.87
2018-09-11T04:21:18.885Z,98930.92
2018-09-11T04:23:51.128Z,98934.77
2018-09-11T04:26:23.484Z,98931.32
2018-09-11T04:28:55.800Z,98933.41
2018-09-11T04:31:28.132Z,98930.88
2018-09-11T04:34:00.429Z,98931.25
2018-09-11T04:36:32.745Z,98925.34
2018-09-11T04:39:06.427Z,98927.32
2018-09-11T04:41:38.725Z,98927.13
2018-09-11T04:44:10.929Z,98931.88
2018-09-11T04:46:43.226Z,98923.58
2018-09-11T04:49:15.460Z,98917.37
2018-09-11T04:51:47.721Z,98926.06
2018-09-11T04:54:19.960Z,98916.16
2018-09-11T04:56:52.265Z,98921.81
2018-09-11T04:59:24.517Z,98925.95
2018-09-11T05:01:57.008Z,98927.02
2018-09-11T05:04:29.070Z,98929.30
2018-09-11T05:07:01.320Z,98935.84
2018-09-11T05:09:33.645Z,98934.73
2018-09-11T05:12:05.982Z,98932.34
2018-09-11T05:14:38.308Z,98934.77
2018-09-11T05:17:10.612Z,98934.77
2018-09-11T05:19:42.845Z,98925.77
2018-09-11T05:22:15.100Z,98931.03
2018-09-11T05:24:47.389Z,98931.21
2018-09-11T05:27:19.649Z,98940.31
2018-09-11T05:29:51.937Z,98937.78
2018-09-11T05:32:24.196Z,98948.28
2018-09-11T05:34:56.497Z,98952.50
2018-09-11T05:37:28.729Z,98950.47
2018-09-11T05:40:01.007Z,98959.70
2018-09-11T05:42:33.323Z,98952.05
2018-09-11T05:45:05.891Z,98959.30
2018-09-11T05:47:38.165Z,98964.56
2018-09-11T05:50:10.397Z,98967.09
2018-09-11T05:52:42.700Z,98963.37
2018-09-11T05:55:14.958Z,98965.95
2018-09-11T05:57:47.280Z,98969.48
2018-09-11T06:00:19.644Z,98966.86
2018-09-11T06:02:51.889Z,98957.87
2018-09-11T06:05:24.220Z,98960.08
2018-09-11T06:07:56.460Z,98954.44
2018-09-11T06:10:28.703Z,98952.27
2018-09-11T06:13:00.981Z,98948.11
2018-09-11T06:15:33.256Z,98951.41
2018-09-11T06:18:05.613Z,98951.98
2018-09-11T06:20:37.884Z,98956.98
2018-09-11T06:23:10.121Z,98954.08
2018-09-11T06:25:42.432Z,98951.35
2018-09-11T06:28:14.635Z,98949.56
2018-09-11T06:30:46.929Z,98949.51
2018-09-11T06:33:19.225Z,98951.55
2018-09-11T06:35:51.528Z,98953.43
2018-09-11T06:38:23.769Z,98956.97
2018-09-11T06:40:56.076Z,98950.47
2018-09-11T06:43:28.356Z,98955.04
2018-09-11T06:46:00.725Z,98945.80
2018-09-11T06:48:32.973Z,98943.78
2018-09-11T06:51:05.277Z,98945.56
2018-09-11T06:53:37.568Z,98953.94
2018-09-11T06:56:09.845Z,98945.84
2018-09-11T06:58:42.132Z,98950.05
2018-09-11T07:01:14.355Z,98960.55
2018-09-11T07:03:46.646Z,98947.97
2018-09-11T07:06:18.905Z,98955.20
2018-09-11T07:08:51.181Z,98956.36
2018-09-11T07:11:23.412Z,98952.95
2018-09-11T07:13:55.843Z,98951.58
2018-09-11T07:16:28.125Z,98952.38
2018-09-11T07:19:00.509Z,98938.06
2018-09-11T07:21:32.769Z,98952.33
2018-09-11T07:24:05.301Z,98950.72
2018-09-11T07:26:37.592Z,98943.22
2018-09-11T07:29:09.957Z,98948.09
2018-09-11T07:31:42.285Z,98944.70
2018-09-11T07:34:14.564Z,98950.67
2018-09-11T07:36:46.920Z,98949.09
2018-09-11T07:39:19.241Z,98944.46
2018-09-11T07:41:51.540Z,98944.52
2018-09-11T07:44:23.829Z,98948.03
2018-09-11T07:46:56.150Z,98945.95
2018-09-11T07:49:28.432Z,98944.58
2018-09-11T07:52:00.753Z,98946.12
2018-09-11T07:54:33.014Z,98947.02
2018-09-11T07:57:05.357Z,98946.81
2018-09-11T07:59:37.613Z,98953.21
2018-09-11T08:02:09.920Z,98956.28
2018-09-11T08:04:42.240Z,98959.73
2018-09-11T08:07:14.553Z,98961.71
2018-09-11T08:09:46.812Z,98961.94
2018-09-11T08:12:19.109Z,98958.44
2018-09-11T08:14:51.374Z,98963.06
2018-09-11T08:17:23.673Z,98961.75
2018-09-11T08:19:56.014Z,98963.94
2018-09-11T08:22:28.324Z,98953.48
2018-09-11T08:25:00.562Z,98958.77
2018-09-11T08:27:32.848Z,98963.75
2018-09-11T08:30:05.558Z,98966.38
2018-09-11T08:32:37.788Z,98970.20
2018-09-11T08:35:10.100Z,98963.25
2018-09-11T08:37:42.371Z,98963.61
2018-09-11T08:40:14.654Z,98950.91
2018-09-11T08:42:46.939Z,98942.61
2018-09-11T08:45:19.268Z,98942.61
2018-09-11T08:47:51.557Z,98945.48
2018-09-11T08:50:23.870Z,98946.31
2018-09-11T08:52:56.157Z,98951.34
2018-09-11T08:55:28.734Z,98951.70
2018-09-11T08:58:01.068Z,98950.87
2018-09-11T09:00:33.379Z,98946.50
2018-09-11T09:03:05.855Z,98948.36
2018-09-11T09:05:38.192Z,98945.16
2018-09-11T09:08:10.493Z,98947.55
2018-09-11T09:10:42.834Z,98944.83
2018-09-11T09:13:15.125Z,98943.59
2018-09-11T09:15:47.432Z,98950.34
2018-09-11T09:18:19.732Z,98947.55
2018-09-11T09:20:52.080Z,98950.34
2018-09-11T09:23:24.358Z,98950.89
2018-09-11T09:25:56.890Z,98944.30
2018-09-11T09:28:29.202Z,98950.13
2018-09-11T09:31:01.480Z,98946.16
2018-09-11T09:33:33.740Z,98945.78
2018-09-11T09:36:06.060Z,98946.58
2018-09-11T09:38:38.347Z,98947.06
2018-09-11T09:41:10.612Z,98940.14
2018-09-11T09:43:43.026Z,98936.59
2018-09-11T09:46:15.332Z,98936.48
2018-09-11T09:48:47.650Z,98936.88
2018-09-11T09:51:19.922Z,98938.16
2018-09-11T09:53:52.275Z,98927.71
2018-09-11T09:56:24.564Z,98923.80
2018-09-11T09:58:56.860Z,98930.83
2018-09-11T10:01:34.688Z,98921.20
2018-09-11T10:04:07.033Z,98916.31
2018-09-11T10:06:39.300Z,98914.19
2018-09-11T10:09:12.469Z,98907.62
2018-09-11T10:11:44.855Z,98909.73
2018-09-11T10:14:17.148Z,98906.00
2018-09-11T10:16:49.440Z,98905.98
2018-09-11T10:19:21.933Z,98904.24
2018-09-11T10:21:54.192Z,98903.08
2018-09-11T10:24:26.561Z,98899.11
2018-09-11T10:26:59.123Z,98903.00
2018-09-11T10:29:31.440Z,98899.00
2018-09-11T10:32:03.733Z,98900.72
2018-09-11T10:34:36.049Z,98898.41
2018-09-11T10:37:08.379Z,98893.75
2018-09-11T10:39:40.657Z,98895.97
2018-09-11T10:42:12.992Z,98896.40
2018-09-11T10:44:45.299Z,98893.80
2018-09-11T10:47:17.645Z,98895.95
2018-09-11T10:49:50.033Z,98890.80
2018-09-11T10:52:22.337Z,98875.99
2018-09-11T10:54:54.624Z,98874.74
2018-09-11T10:57:26.928Z,98872.53
2018-09-11T10:59:59.244Z,98866.40
2018-09-11T11:02:31.571Z,98869.03
2018-09-11T11:05:03.943Z,98867.28
2018-09-11T11:07:36.264Z,98860.31
2018-09-11T11:10:08.686Z,98858.47
2018-09-11T11:12:41.008Z,98859.34
2018-09-11T11:15:13.337Z,98846.67
2018-09-11T11:17:45.645Z,98843.68
2018-09-11T11:20:17.975Z,98852.38
2018-09-11T11:22:50.320Z,98840.20
2018-09-11T11:25:22.622Z,98841.50
2018-09-11T11:27:55.005Z,98837.25
2018-09-11T11:30:27.281Z,98838.59
2018-09-11T11:32:59.633Z,98836.78
2018-09-11T11:35:31.877Z,98834.63
2018-09-11T11:38:04.279Z,98835.09
2018-09-11T11:40:36.543Z,98832.02
2018-09-11T11:43:08.909Z,98820.22
2018-09-11T11:45:41.196Z,98824.19
2018-09-11T11:48:13.594Z,98824.17
2018-09-11T11:50:45.859Z,98827.63
2018-09-11T11:53:18.152Z,98832.49
2018-09-11T11:55:50.458Z,98826.03
2018-09-11T11:58:22.728Z,98817.63
2018-09-11T12:00:55.024Z,98822.83
2018-09-11T12:03:27.365Z,98820.63
2018-09-11T12:06:00.080Z,98814.92
2018-09-11T12:08:32.333Z,98812.77
2018-09-11T12:11:04.661Z,98807.49
2018-09-11T12:13:36.986Z,98810.56
2018-09-11T12:16:09.358Z,98807.08
2018-09-11T12:18:41.672Z,98803.59
2018-09-11T12:21:13.976Z,98804.47
2018-09-11T12:23:46.222Z,98799.63
2018-09-11T12:26:18.571Z,98803.59
2018-09-11T12:28:50.833Z,98800.49
2018-09-11T12:31:23.150Z,98805.88
2018-09-11T12:33:55.415Z,98806.31
2018-09-11T12:36:27.695Z,98806.36
2018-09-11T12:39:00.002Z,98793.60
2018-09-11T12:41:32.308Z,98787.38
2018-09-11T12:44:04.639Z,98791.29
2018-09-11T12:46:37.320Z,98791.31
2018-09-11T12:49:09.309Z,98793.52
2018-09-11T12:51:41.620Z,98782.11
2018-09-11T12:54:13.969Z,98788.72
2018-09-11T12:56:46.275Z,98783.97
2018-09-11T12:59:18.561Z,98787.93
2018-09-11T13:01:50.872Z,98782.70
2018-09-11T13:04:23.166Z,98772.18
2018-09-11T13:06:55.571Z,98773.06
2018-09-11T13:09:27.873Z,98773.05
2018-09-11T13:12:00.271Z,98773.08
2018-09-11T13:14:32.584Z,98771.77
2018-09-11T13:17:04.866Z,98766.08
2018-09-11T13:19:37.189Z,98768.28
2018-09-11T13:22:09.445Z,98767.39
2018-09-11T13:24:41.738Z,98765.64
2018-09-11T13:27:14.055Z,98760.86
2018-09-11T13:29:46.382Z,98766.53
2018-09-11T13:32:18.669Z,98759.07
2018-09-11T13:34:51.029Z,98762.16
2018-09-11T13:37:23.317Z,98763.94
2018-09-11T13:39:55.596Z,98755.15
2018-09-11T13:42:27.927Z,98756.47
2018-09-11T13:45:00.259Z,98748.15
2018-09-11T13:47:32.592Z,98747.70
2018-09-11T13:50:05.037Z,98745.05
2018-09-11T13:52:37.340Z,98751.20
2018-09-11T13:55:09.701Z,98748.14
2018-09-11T13:57:41.929Z,98749.00
2018-09-11T14:00:14.232Z,98747.66
2018-09-11T14:02:46.521Z,98746.34
2018-09-11T14:05:18.880Z,98741.53
2018-09-11T14:07:51.153Z,98738.50
2018-09-11T14:10:23.554Z,98737.61
2018-09-11T14:12:55.882Z,98733.69
2018-09-11T14:15:35.231Z,98731.01
2018-09-11T14:18:07.550Z,98734.95
2018-09-11T14:20:39.856Z,98724.89
2018-09-11T14:23:12.204Z,98729.70
2018-09-11T14:25:44.492Z,98727.95
2018-09-11T14:28:16.777Z,98722.25
2018-09-11T14:30:49.100Z,98723.56
2018-09-11T14:33:21.505Z,98723.55
2018-09-11T14:35:53.863Z,98717.89
2018-09-11T14:38:26.209Z,98714.36
2018-09-11T14:40:58.517Z,98710.83
2018-09-11T14:43:30.835Z,98711.73
2018-09-11T14:46:03.174Z,98711.30
2018-09-11T14:48:35.527Z,98705.61
2018-09-11T14:51:07.914Z,98709.52
2018-09-11T14:53:40.272Z,98708.20
2018-09-11T14:56:12.623Z,98713.94
2018-09-11T14:58:44.896Z,98718.30
2018-09-11T15:01:17.201Z,98712.62
2018-09-11T15:03:49.573Z,98712.16
2018-09-11T15:06:21.900Z,98714.37
2018-09-11T15:08:54.209Z,98716.98
2018-09-11T15:11:26.457Z,98711.73
2018-09-11T15:13:58.762Z,98704.72
2018-09-11T15:16:31.059Z,98695.05
2018-09-11T15:19:03.418Z,98689.36
2018-09-11T15:21:35.714Z,98686.31
2018-09-11T15:24:08.133Z,98685.00
2018-09-11T15:26:40.435Z,98683.25
2018-09-11T15:29:12.803Z,98681.48
2018-09-11T15:31:45.149Z,98682.80
2018-09-11T15:34:17.470Z,98677.55
2018-09-11T15:36:49.768Z,98672.27
2018-09-11T15:39:22.045Z,98672.28
2018-09-11T15:41:54.345Z,98674.03
2018-09-11T15:44:27.601Z,98672.73
2018-09-11T15:46:59.956Z,98674.91
2018-09-11T15:49:32.228Z,98669.66
2018-09-11T15:52:04.546Z,98672.28
2018-09-11T15:54:36.805Z,98667.02
2018-09-11T15:57:09.131Z,98665.25
2018-09-11T15:59:41.468Z,98670.08
2018-09-11T16:02:13.769Z,98667.44
2018-09-11T16:04:46.065Z,98666.59
2018-09-11T16:07:18.347Z,98663.02
2018-09-11T16:09:50.628Z,98657.73
2018-09-11T16:12:22.957Z,98659.92
2018-09-11T16:14:55.255Z,98652.03
2018-09-11T16:17:27.508Z,98648.95
2018-09-11T16:19:59.847Z,98648.94
2018-09-11T16:22:32.165Z,98651.97
2018-09-11T16:25:04.547Z,98648.41
2018-09-11T16:27:36.812Z,98652.75
2018-09-11T16:30:09.173Z,98649.67
2018-09-11T16:32:41.446Z,98653.15
2018-09-11T16:35:13.770Z,98647.42
2018-09-11T16:37:46.065Z,98650.00
2018-09-11T16:40:18.430Z,98646.49
2018-09-11T16:42:50.692Z,98654.77
2018-09-11T16:45:23.066Z,98647.71
2018-09-11T16:47:55.357Z,98646.39
2018-09-11T16:50:27.753Z,98647.22
2018-09-11T16:52:59.983Z,98651.53
2018-09-11T16:55:39.020Z,98649.29
2018-09-11T16:58:11.286Z,98646.63
2018-09-11T17:00:43.634Z,98647.01
2018-09-11T17:03:15.948Z,98654.83
2018-09-11T17:05:48.318Z,98660.46
2018-09-11T17:08:20.648Z,98656.08
2018-09-11T17:10:53.024Z,98656.84
2018-09-11T17:13:25.364Z,98662.48
2018-09-11T17:15:57.658Z,98666.27
2018-09-11T17:18:29.957Z,98667.91
2018-09-11T17:21:02.302Z,98669.98
2018-09-11T17:23:34.602Z,98671.11
2018-09-11T17:26:06.945Z,98677.48
2018-09-11T17:28:39.294Z,98678.16
2018-09-11T17:31:11.571Z,98674.48
2018-09-11T17:33:43.910Z,98682.98
2018-09-11T17:36:16.523Z,98682.77
2018-09-11T17:38:48.865Z,98686.02
2018-09-11T17:41:21.195Z,98692.77
2018-09-11T17:43:53.480Z,98689.06
2018-09-11T17:46:25.849Z,98690.14
2018-09-11T17:48:58.322Z,98692.13
2018-09-11T17:51:30.515Z,98694.14
2018-09-11T17:54:03.427Z,98697.37
2018-09-11T17:56:35.778Z,98697.57
2018-09-11T17:59:08.084Z,98704.36
2018-09-11T18:01:40.458Z,98706.58
2018-09-11T18:04:12.809Z,98704.18
2018-09-11T18:06:45.225Z,98713.13
2018-09-11T18:09:17.551Z,98717.25
2018-09-11T18:11:49.914Z,98724.93
2018-09-11T18:14:22.290Z,98723.30
2018-09-11T18:16:54.567Z,98724.83
2018-09-11T18:19:26.956Z,98738.61
2018-09-11T18:21:59.328Z,98747.16
2018-09-11T18:24:31.816Z,98746.00
2018-09-11T18:27:04.207Z,98744.44
2018-09-11T18:29:36.596Z,98747.62
2018-09-11T18:32:08.921Z,98749.48
2018-09-11T18:34:41.298Z,98750.56
2018-09-11T18:37:13.637Z,98753.38
2018-09-11T18:39:45.984Z,98759.79
2018-09-11T18:42:18.389Z,98754.72
2018-09-11T18:44:50.776Z,98754.95
2018-09-11T18:47:23.186Z,98754.79
2018-09-11T18:49:55.533Z,98759.83
2018-09-11T18:52:27.990Z,98765.15
2018-09-11T18:55:00.313Z,98766.11
2018-09-11T18:57:32.696Z,98767.94
2018-09-11T19:00:05.167Z,98767.95
2018-09-11T19:02:37.526Z,98769.44
2018-09-11T19:05:09.981Z,98765.33
2018-09-11T19:07:42.315Z,98767.02
2018-09-11T19:10:15.523Z,98770.91
2018-09-11T19:12:48.028Z,98776.63
2018-09-11T19:15:20.429Z,98776.25
2018-09-11T19:17:52.859Z,98778.82
2018-09-11T19:20:25.254Z,98780.41
2018-09-11T19:22:57.600Z,98787.89
2018-09-11T19:25:30.021Z,98783.22
2018-09-11T19:28:02.471Z,98781.10
2018-09-11T19:30:34.877Z,98782.00
2018-09-11T19:33:07.246Z,98781.02
2018-09-11T19:35:39.631Z,98774.02
2018-09-11T19:38:11.977Z,98775.56
2018-09-11T19:40:44.370Z,98773.81
2018-09-11T19:43:16.758Z,98778.31
2018-09-11T19:45:49.186Z,98779.47
2018-09-11T19:48:21.536Z,98774.32
2018-09-11T19:50:54.002Z,98778.45
2018-09-11T19:53:26.385Z,98773.62
2018-09-11T19:55:58.725Z,98770.29
2018-09-11T19:58:31.114Z,98774.42
2018-09-11T20:01:03.486Z,98775.02
2018-09-11T20:03:35.894Z,98787.28
2018-09-11T20:06:08.325Z,98783.41
2018-09-11T20:08:40.772Z,98781.89
2018-09-11T20:11:13.873Z,98785.32
2018-09-11T20:13:46.245Z,98780.60
2018-09-11T20:16:18.624Z,98782.63
2018-09-11T20:18:51.089Z,98792.16
2018-09-11T20:21:23.415Z,98785.56
2018-09-11T20:23:55.944Z,98787.70
2018-09-11T20:26:28.538Z,98785.41
2018-09-11T20:29:00.937Z,98792.95
2018-09-11T20:31:33.272Z,98786.70
2018-09-11T20:34:05.658Z,98786.58
2018-09-11T20:36:38.043Z,98784.94
2018-09-11T20:39:11.505Z,98781.09
2018-09-11T20:41:43.878Z,98788.36
2018-09-11T20:44:16.295Z,98787.63
2018-09-11T20:46:48.607Z,98786.33
2018-09-11T20:49:21.015Z,98783.38
2018-09-11T20:51:53.367Z,98783.59
2018-09-11T20:54:25.685Z,98783.55
2018-09-11T20:56:58.030Z,98790.65
2018-09-11T20:59:30.451Z,98798.71
2018-09-11T21:02:02.827Z,98794.41
2018-09-11T21:04:41.975Z,98796.84
2018-09-11T21:07:14.319Z,98798.67
2018-09-11T21:09:46.645Z,98797.59
2018-09-11T21:12:19.017Z,98796.37
2018-09-11T21:14:51.346Z,98794.20
2018-09-11T21:17:23.773Z,98794.95
2018-09-11T21:19:56.099Z,98803.55
2018-09-11T21:22:28.442Z,98805.80
2018-09-11T21:25:00.761Z,98804.25
2018-09-11T21:27:33.154Z,98805.61
2018-09-11T21:30:05.485Z,98807.58
2018-09-11T21:32:37.804Z,98803.64
2018-09-11T21:35:10.076Z,98808.14
2018-09-11T21:37:42.405Z,98810.42
2018-09-11T21:40:14.706Z,98809.00
2018-09-11T21:42:47.003Z,98810.67
2018-09-11T21:45:19.332Z,98805.52
2018-09-11T21:47:51.647Z,98808.16
2018-09-11T21:50:23.951Z,98802.94
2018-09-11T21:52:56.268Z,98803.08
2018-09-11T21:55:28.535Z,98810.80
2018-09-11T21:58:00.862Z,98807.98
2018-09-11T22:00:33.174Z,98806.23
2018-09-11T22:03:05.527Z,98816.99
2018-09-11T22:05:37.850Z,98816.86
2018-09-11T22:08:10.166Z,98814.31
2018-09-11T22:10:42.484Z,98807.39
2018-09-11T22:13:14.770Z,98814.37
2018-09-11T22:15:47.101Z,98817.03
2018-09-11T22:18:19.439Z,98818.09
2018-09-11T22:20:51.720Z,98816.67
2018-09-11T22:23:24.053Z,98822.98
2018-09-11T22:25:56.390Z,98817.77
2018-09-11T22:28:35.516Z,98817.25
2018-09-11T22:31:07.773Z,98823.16
2018-09-11T22:33:40.088Z,98820.57
2018-09-11T22:36:12.371Z,98821.86
2018-09-11T22:38:44.659Z,98817.11
2018-09-11T22:41:16.962Z,98820.02
2018-09-11T22:43:49.642Z,98820.05
2018-09-11T22:46:22.897Z,98813.27
2018-09-11T22:48:55.164Z,98814.69
2018-09-11T22:51:27.469Z,98804.92
2018-09-11T22:53:59.773Z,98810.41
2018-09-11T22:56:32.045Z,98807.82
2018-09-11T22:59:04.323Z,98808.84
2018-09-11T23:01:36.658Z,98807.73
2018-09-11T23:04:08.949Z,98804.41
2018-09-11T23:06:41.319Z,98803.86
2018-09-11T23:09:13.640Z,98798.46
2018-09-11T23:11:45.868Z,98803.95
2018-09-11T23:14:18.272Z,98801.98
2018-09-11T23:16:50.574Z,98793.47
2018-09-11T23:19:22.899Z,98792.74
2018-09-11T23:21:55.220Z,98789.78
2018-09-11T23:24:27.448Z,98786.23
2018-09-11T23:26:59.779Z,98790.63
2018-09-11T23:29:32.087Z,98789.98
2018-09-11T23:32:04.376Z,98790.61
2018-09-11T23:34:36.640Z,98790.10
2018-09-11T23:37:08.945Z,98788.55
2018-09-11T23:39:41.308Z,98786.38
2018-09-11T23:42:13.645Z,98789.22
2018-09-11T23:44:45.951Z,98788.91
2018-09-11T23:47:18.301Z,98794.68
2018-09-11T23:49:50.601Z,98792.27
2018-09-11T23:52:22.876Z,98792.30
2018-09-11T23:54:55.162Z,98796.02
2018-09-11T23:57:27.475Z,98794.11
2018-09-11T23:59:59.789Z,98788.41
